createdAt,value
2018-01-22T00:00:00.920Z,98475.52
2018-01-22T00:02:28.380Z,98464.45
2018-01-22T00:04:56.133Z,98459.61
2018-01-22T00:07:23.607Z,98458.81
2018-01-22T00:09:51.064Z,98452.59
2018-01-22T00:12:19.142Z,98447.63
2018-01-22T00:14:46.601Z,98442.97
2018-01-22T00:17:14.056Z,98445.83
2018-01-22T00:19:42.087Z,98451.69
2018-01-22T00:22:11.344Z,98434.59
2018-01-22T00:24:38.796Z,98420.05
2018-01-22T00:27:06.655Z,98404.33
2018-01-22T00:29:34.110Z,98408.19
2018-01-22T00:32:01.565Z,98411.76
2018-01-22T00:34:29.654Z,98409.30
2018-01-22T00:36:57.113Z,98410.46
2018-01-22T00:39:24.571Z,98405.91
2018-01-22T00:41:52.331Z,98405.80
2018-01-22T00:44:19.781Z,98407.14
2018-01-22T00:46:47.332Z,98408.86
2018-01-22T00:49:15.021Z,98414.45
2018-01-22T00:51:42.481Z,98409.53
2018-01-22T00:54:09.931Z,98396.26
2018-01-22T00:56:37.708Z,98381.99
2018-01-22T00:59:05.164Z,98379.11
2018-01-22T01:01:32.685Z,98375.19
2018-01-22T01:04:00.703Z,98376.29
2018-01-22T01:06:28.168Z,98369.05
2018-01-22T01:08:55.628Z,98359.85
2018-01-22T01:11:23.396Z,98366.61
2018-01-22T01:13:51.236Z,98369.92
2018-01-22T01:16:18.700Z,98368.48
2018-01-22T01:18:46.432Z,98357.28
2018-01-22T01:21:13.902Z,98356.70
2018-01-22T01:23:41.353Z,98356.59
2018-01-22T01:26:09.078Z,98354.91
2018-01-22T01:28:36.542Z,98364.16
2018-01-22T01:31:04.003Z,98365.65
2018-01-22T01:33:31.777Z,98366.52
2018-01-22T01:35:59.262Z,98354.53
2018-01-22T01:38:26.721Z,98345.86
2018-01-22T01:40:54.445Z,98325.44
2018-01-22T01:43:21.906Z,98316.17
2018-01-22T01:45:49.374Z,98321.11
2018-01-22T01:48:17.132Z,98322.47
2018-01-22T01:50:44.592Z,98322.77
2018-01-22T01:53:12.049Z,98324.97
2018-01-22T01:55:40.134Z,98318.72
2018-01-22T01:58:07.614Z,98310.55
2018-01-22T02:00:35.072Z,98311.47
2018-01-22T02:03:02.820Z,98323.14
2018-01-22T02:05:30.292Z,98317.20
2018-01-22T02:07:57.757Z,98307.92
2018-01-22T02:10:25.499Z,98306.33
2018-01-22T02:12:52.972Z,98314.38
2018-01-22T02:15:21.119Z,98309.72
2018-01-22T02:17:48.803Z,98302.11
2018-01-22T02:20:16.273Z,98298.61
2018-01-22T02:22:43.756Z,98286.58
2018-01-22T02:25:11.481Z,98282.83
2018-01-22T02:27:38.967Z,98275.70
2018-01-22T02:30:06.444Z,98269.73
2018-01-22T02:32:34.173Z,98259.85
2018-01-22T02:35:01.646Z,98261.52
2018-01-22T02:37:29.121Z,98264.03
2018-01-22T02:39:56.937Z,98258.38
2018-01-22T02:42:24.406Z,98264.97
2018-01-22T02:44:51.877Z,98267.91
2018-01-22T02:47:19.548Z,98271.89
2018-01-22T02:49:47.012Z,98274.89
2018-01-22T02:52:14.481Z,98262.97
2018-01-22T02:54:42.239Z,98271.73
2018-01-22T02:57:09.709Z,98269.92
2018-01-22T02:59:37.186Z,98270.56
2018-01-22T03:02:04.928Z,98255.83
2018-01-22T03:04:32.396Z,98257.77
2018-01-22T03:06:59.853Z,98255.68
2018-01-22T03:09:28.230Z,98258.27
2018-01-22T03:11:55.694Z,98261.30
2018-01-22T03:14:23.164Z,98266.27
2018-01-22T03:16:51.220Z,98268.84
2018-01-22T03:19:18.681Z,98267.95
2018-01-22T03:21:46.137Z,98268.67
2018-01-22T03:24:13.902Z,98270.02
2018-01-22T03:26:41.358Z,98264.11
2018-01-22T03:29:08.811Z,98261.46
2018-01-22T03:31:36.588Z,98268.41
2018-01-22T03:34:04.037Z,98268.27
2018-01-22T03:36:31.494Z,98263.75
2018-01-22T03:38:59.285Z,98256.58
2018-01-22T03:41:26.748Z,98259.83
2018-01-22T03:43:54.246Z,98260.25
2018-01-22T03:46:21.965Z,98259.28
2018-01-22T03:48:49.438Z,98256.98
2018-01-22T03:51:16.964Z,98258.05
2018-01-22T03:53:44.653Z,98262.38
2018-01-22T03:56:12.104Z,98260.88
2018-01-22T03:58:39.563Z,98261.27
2018-01-22T04:01:07.345Z,98257.13
2018-01-22T04:03:34.800Z,98253.69
2018-01-22T04:06:02.268Z,98245.80
2018-01-22T04:08:30.033Z,98238.79
2018-01-22T04:10:57.493Z,98234.67
2018-01-22T04:13:24.957Z,98232.91
2018-01-22T04:15:52.722Z,98239.21
2018-01-22T04:18:20.872Z,98238.13
2018-01-22T04:20:48.320Z,98218.35
2018-01-22T04:23:16.020Z,98220.31
2018-01-22T04:25:43.481Z,98210.98
2018-01-22T04:28:10.945Z,98212.01
2018-01-22T04:30:39.005Z,98202.20
2018-01-22T04:33:06.466Z,98193.20
2018-01-22T04:35:33.917Z,98184.78
2018-01-22T04:38:01.707Z,98173.13
2018-01-22T04:40:29.164Z,98170.20
2018-01-22T04:42:56.668Z,98157.82
2018-01-22T04:45:24.387Z,98157.25
2018-01-22T04:47:51.852Z,98163.44
2018-01-22T04:50:19.310Z,98150.19
2018-01-22T04:52:47.068Z,98144.09
2018-01-22T04:55:14.539Z,98146.16
2018-01-22T04:57:41.996Z,98145.63
2018-01-22T05:00:10.062Z,98131.25
2018-01-22T05:02:38.409Z,98130.81
2018-01-22T05:05:05.989Z,98129.10
2018-01-22T05:07:34.518Z,98124.86
2018-01-22T05:10:01.981Z,98125.13
2018-01-22T05:12:29.448Z,98130.08
2018-01-22T05:14:57.286Z,98121.95
2018-01-22T05:17:24.749Z,98133.23
2018-01-22T05:19:53.208Z,98131.29
2018-01-22T05:22:21.202Z,98126.09
2018-01-22T05:24:48.666Z,98120.09
2018-01-22T05:27:16.129Z,98125.87
2018-01-22T05:29:43.888Z,98129.38
2018-01-22T05:32:11.342Z,98131.13
2018-01-22T05:34:38.807Z,98123.22
2018-01-22T05:37:06.516Z,98118.39
2018-01-22T05:39:33.982Z,98121.55
2018-01-22T05:42:01.433Z,98119.23
2018-01-22T05:44:29.249Z,98126.40
2018-01-22T05:46:56.701Z,98134.22
2018-01-22T05:49:24.151Z,98128.41
2018-01-22T05:51:51.942Z,98123.88
2018-01-22T05:54:19.397Z,98118.29
2018-01-22T05:56:46.857Z,98113.21
2018-01-22T05:59:14.631Z,98107.41
2018-01-22T06:01:42.086Z,98115.23
2018-01-22T06:04:09.539Z,98110.25
2018-01-22T06:06:37.317Z,98110.52
2018-01-22T06:09:04.769Z,98106.35
2018-01-22T06:11:32.412Z,98100.63
2018-01-22T06:14:00.238Z,98110.70
2018-01-22T06:16:27.689Z,98104.58
2018-01-22T06:18:55.144Z,98109.07
2018-01-22T06:21:25.472Z,98116.72
2018-01-22T06:23:52.924Z,98116.98
2018-01-22T06:26:20.436Z,98117.40
2018-01-22T06:28:48.152Z,98107.41
2018-01-22T06:31:15.612Z,98112.14
2018-01-22T06:33:43.067Z,98107.94
2018-01-22T06:36:10.835Z,98099.47
2018-01-22T06:38:38.300Z,98100.95
2018-01-22T06:41:05.752Z,98100.33
2018-01-22T06:43:33.516Z,98101.43
2018-01-22T06:46:00.971Z,98103.50
2018-01-22T06:48:28.415Z,98104.70
2018-01-22T06:50:56.313Z,98108.45
2018-01-22T06:53:23.770Z,98115.43
2018-01-22T06:55:51.232Z,98108.86
2018-01-22T06:58:19.197Z,98117.38
2018-01-22T07:00:46.649Z,98120.41
2018-01-22T07:03:14.114Z,98118.77
2018-01-22T07:05:41.912Z,98124.61
2018-01-22T07:08:09.373Z,98126.14
2018-01-22T07:10:36.826Z,98114.90
2018-01-22T07:13:04.572Z,98109.75
2018-01-22T07:15:32.028Z,98102.27
2018-01-22T07:17:59.496Z,98105.02
2018-01-22T07:20:27.253Z,98103.63
2018-01-22T07:22:55.352Z,98108.84
2018-01-22T07:25:22.825Z,98098.20
2018-01-22T07:27:50.877Z,98094.02
2018-01-22T07:30:18.345Z,98074.65
2018-01-22T07:32:45.816Z,98064.83
2018-01-22T07:35:13.563Z,98057.45
2018-01-22T07:37:41.014Z,98057.16
2018-01-22T07:40:08.477Z,98062.52
2018-01-22T07:42:36.106Z,98061.58
2018-01-22T07:45:03.556Z,98052.82
2018-01-22T07:47:31.013Z,98046.63
2018-01-22T07:49:58.938Z,98040.37
2018-01-22T07:52:26.396Z,98046.00
2018-01-22T07:54:53.854Z,98050.16
2018-01-22T07:57:21.477Z,98049.92
2018-01-22T07:59:48.928Z,98044.17
2018-01-22T08:02:16.384Z,98049.04
2018-01-22T08:04:44.306Z,98045.05
2018-01-22T08:07:11.756Z,98043.66
2018-01-22T08:09:39.210Z,98040.69
2018-01-22T08:12:06.998Z,98028.47
2018-01-22T08:14:34.533Z,98030.48
2018-01-22T08:17:01.994Z,98032.89
2018-01-22T08:19:29.860Z,98018.42
2018-01-22T08:21:57.320Z,98010.81
2018-01-22T08:24:27.135Z,98016.11
2018-01-22T08:26:54.937Z,98006.64
2018-01-22T08:29:22.385Z,98001.45
2018-01-22T08:31:49.842Z,97999.78
2018-01-22T08:34:17.816Z,97997.66
2018-01-22T08:36:45.272Z,97999.92
2018-01-22T08:39:12.726Z,97989.92
2018-01-22T08:41:40.816Z,97996.58
2018-01-22T08:44:08.277Z,97995.42
2018-01-22T08:46:35.741Z,97997.27
2018-01-22T08:49:03.586Z,97991.35
2018-01-22T08:51:31.037Z,97993.85
2018-01-22T08:53:58.488Z,97994.78
2018-01-22T08:56:26.185Z,97989.10
2018-01-22T08:58:53.636Z,97977.66
2018-01-22T09:01:21.114Z,97971.11
2018-01-22T09:03:49.172Z,97968.98
2018-01-22T09:06:16.627Z,97968.74
2018-01-22T09:08:44.072Z,97973.14
2018-01-22T09:11:11.860Z,97968.53
2018-01-22T09:13:39.315Z,97971.45
2018-01-22T09:16:06.795Z,97981.81
2018-01-22T09:18:34.552Z,97986.13
2018-01-22T09:21:02.003Z,97990.30
2018-01-22T09:23:29.449Z,97974.07
2018-01-22T09:25:58.169Z,97967.06
2018-01-22T09:28:25.626Z,97967.56
2018-01-22T09:30:53.083Z,97976.29
2018-01-22T09:33:20.852Z,97975.66
2018-01-22T09:35:48.301Z,97988.78
2018-01-22T09:38:15.750Z,97991.73
2018-01-22T09:40:43.484Z,97993.70
2018-01-22T09:43:10.942Z,97979.66
2018-01-22T09:45:38.401Z,97976.02
2018-01-22T09:48:06.217Z,97977.80
2018-01-22T09:50:33.672Z,97971.28
2018-01-22T09:53:01.121Z,97965.75
2018-01-22T09:55:28.914Z,97957.70
2018-01-22T09:57:56.363Z,97959.13
2018-01-22T10:00:23.813Z,97963.70
2018-01-22T10:02:51.611Z,97961.98
2018-01-22T10:05:19.064Z,97971.16
2018-01-22T10:07:46.524Z,97962.62
2018-01-22T10:10:14.289Z,97962.10
2018-01-22T10:12:41.752Z,97955.31
2018-01-22T10:15:09.214Z,97957.72
2018-01-22T10:17:36.976Z,97952.31
2018-01-22T10:20:04.440Z,97952.28
2018-01-22T10:22:31.896Z,97952.75
2018-01-22T10:24:59.665Z,97945.95
2018-01-22T10:27:27.500Z,97941.36
2018-01-22T10:29:54.953Z,97946.65
2018-01-22T10:32:22.654Z,97938.11
2018-01-22T10:34:50.096Z,97939.23
2018-01-22T10:37:17.553Z,97943.73
2018-01-22T10:39:45.651Z,97944.03
2018-01-22T10:42:13.097Z,97932.52
2018-01-22T10:44:40.540Z,97939.11
2018-01-22T10:47:08.329Z,97939.27
2018-01-22T10:49:35.784Z,97927.63
2018-01-22T10:52:03.237Z,97929.56
2018-01-22T10:54:31.047Z,97921.38
2018-01-22T10:56:58.499Z,97921.64
2018-01-22T10:59:25.959Z,97918.96
2018-01-22T11:01:54.022Z,97915.15
2018-01-22T11:04:21.505Z,97910.69
2018-01-22T11:06:48.960Z,97906.77
2018-01-22T11:09:16.706Z,97911.27
2018-01-22T11:11:44.163Z,97902.16
2018-01-22T11:14:11.613Z,97896.00
2018-01-22T11:16:40.018Z,97884.73
2018-01-22T11:19:07.467Z,97888.58
2018-01-22T11:21:34.915Z,97885.05
2018-01-22T11:24:02.712Z,97881.16
2018-01-22T11:26:30.628Z,97879.49
2018-01-22T11:28:58.621Z,97873.98
2018-01-22T11:31:26.321Z,97873.08
2018-01-22T11:33:53.773Z,97873.81
2018-01-22T11:36:21.262Z,97870.32
2018-01-22T11:38:48.990Z,97874.04
2018-01-22T11:41:16.492Z,97869.22
2018-01-22T11:43:43.953Z,97869.84
2018-01-22T11:46:11.663Z,97871.25
2018-01-22T11:48:39.121Z,97863.59
2018-01-22T11:51:06.580Z,97863.14
2018-01-22T11:53:34.356Z,97854.95
2018-01-22T11:56:01.804Z,97861.86
2018-01-22T11:58:29.416Z,97853.02
2018-01-22T12:00:57.354Z,97846.38
2018-01-22T12:03:24.804Z,97837.32
2018-01-22T12:05:52.351Z,97840.31
2018-01-22T12:08:20.052Z,97822.76
2018-01-22T12:10:47.509Z,97817.80
2018-01-22T12:13:14.976Z,97832.14
2018-01-22T12:15:42.741Z,97820.73
2018-01-22T12:18:10.200Z,97819.56
2018-01-22T12:20:37.660Z,97814.61
2018-01-22T12:23:05.444Z,97816.29
2018-01-22T12:25:32.901Z,97813.46
2018-01-22T12:28:00.383Z,97803.27
2018-01-22T12:30:29.032Z,97798.38
2018-01-22T12:32:56.493Z,97798.70
2018-01-22T12:35:23.947Z,97799.48
2018-01-22T12:37:52.017Z,97799.61
2018-01-22T12:40:19.476Z,97802.91
2018-01-22T12:42:46.928Z,97802.48
2018-01-22T12:45:14.693Z,97791.13
2018-01-22T12:47:42.157Z,97784.13
2018-01-22T12:50:09.613Z,97784.16
2018-01-22T12:52:37.395Z,97779.76
2018-01-22T12:55:04.857Z,97774.29
2018-01-22T12:57:32.312Z,97768.03
2018-01-22T13:00:00.091Z,97767.33
2018-01-22T13:02:27.552Z,97768.30
2018-01-22T13:04:55.020Z,97770.86
2018-01-22T13:07:23.076Z,97762.43
2018-01-22T13:09:50.536Z,97766.26
2018-01-22T13:12:17.992Z,97769.09
2018-01-22T13:14:45.766Z,97765.01
2018-01-22T13:17:13.226Z,97754.26
2018-01-22T13:19:40.691Z,97756.60
2018-01-22T13:22:08.440Z,97751.56
2018-01-22T13:24:35.895Z,97747.89
2018-01-22T13:27:03.352Z,97749.03
2018-01-22T13:29:31.134Z,97752.04
2018-01-22T13:31:58.981Z,97756.14
2018-01-22T13:34:26.444Z,97759.39
2018-01-22T13:36:54.362Z,97751.23
2018-01-22T13:39:21.820Z,97754.36
2018-01-22T13:41:49.276Z,97748.67
2018-01-22T13:44:17.124Z,97755.94
2018-01-22T13:46:44.591Z,97753.56
2018-01-22T13:49:12.057Z,97752.50
2018-01-22T13:51:39.819Z,97753.44
2018-01-22T13:54:07.745Z,97750.63
2018-01-22T13:56:35.190Z,97743.22
2018-01-22T13:59:03.125Z,97746.08
2018-01-22T14:01:30.584Z,97756.06
2018-01-22T14:03:58.046Z,97753.16
2018-01-22T14:06:26.372Z,97752.20
2018-01-22T14:08:53.832Z,97762.02
2018-01-22T14:11:21.323Z,97764.69
2018-01-22T14:13:49.106Z,97769.73
2018-01-22T14:16:16.606Z,97766.94
2018-01-22T14:18:44.068Z,97763.59
2018-01-22T14:21:11.788Z,97760.08
2018-01-22T14:23:39.257Z,97769.14
2018-01-22T14:26:06.732Z,97768.11
2018-01-22T14:28:34.445Z,97770.38
2018-01-22T14:31:01.925Z,97766.92
2018-01-22T14:33:29.723Z,97771.52
2018-01-22T14:35:57.473Z,97770.66
2018-01-22T14:38:24.939Z,97769.30
2018-01-22T14:40:52.409Z,97761.14
2018-01-22T14:43:23.222Z,97768.14
2018-01-22T14:45:50.681Z,97773.96
2018-01-22T14:48:18.140Z,97773.16
2018-01-22T14:50:45.908Z,97770.30
2018-01-22T14:53:13.365Z,97763.97
2018-01-22T14:55:40.824Z,97768.47
2018-01-22T14:58:08.547Z,97769.28
2018-01-22T15:00:36.007Z,97772.37
2018-01-22T15:03:03.474Z,97772.68
2018-01-22T15:05:31.280Z,97765.09
2018-01-22T15:07:58.735Z,97772.95
2018-01-22T15:10:26.188Z,97769.96
2018-01-22T15:12:54.285Z,97774.47
2018-01-22T15:15:21.741Z,97778.03
2018-01-22T15:17:49.195Z,97774.39
2018-01-22T15:20:17.024Z,97779.06
2018-01-22T15:22:45.316Z,97776.31
2018-01-22T15:25:12.777Z,97779.73
2018-01-22T15:27:40.579Z,97777.44
2018-01-22T15:30:08.042Z,97783.60
2018-01-22T15:32:35.493Z,97778.14
2018-01-22T15:35:03.944Z,97776.70
2018-01-22T15:37:31.392Z,97776.89
2018-01-22T15:39:58.856Z,97779.84
2018-01-22T15:42:26.860Z,97780.98
2018-01-22T15:44:54.321Z,97780.97
2018-01-22T15:47:21.769Z,97782.83
2018-01-22T15:49:49.556Z,97781.27
2018-01-22T15:52:17.008Z,97784.56
2018-01-22T15:54:44.460Z,97786.20
2018-01-22T15:57:12.258Z,97794.67
2018-01-22T15:59:39.720Z,97785.31
2018-01-22T16:02:07.170Z,97795.33
2018-01-22T16:04:34.937Z,97796.21
2018-01-22T16:07:02.392Z,97800.98
2018-01-22T16:09:29.857Z,97801.57
2018-01-22T16:11:57.570Z,97797.87
2018-01-22T16:14:25.032Z,97809.86
2018-01-22T16:16:52.482Z,97808.53
2018-01-22T16:19:20.304Z,97806.39
2018-01-22T16:21:47.764Z,97812.39
2018-01-22T16:24:15.212Z,97812.94
2018-01-22T16:26:42.993Z,97813.39
2018-01-22T16:29:10.440Z,97829.39
2018-01-22T16:31:37.908Z,97831.23
2018-01-22T16:34:05.677Z,97835.63
2018-01-22T16:36:33.837Z,97828.28
2018-01-22T16:39:01.304Z,97830.83
2018-01-22T16:41:29.174Z,97825.14
2018-01-22T16:43:56.630Z,97834.81
2018-01-22T16:46:24.084Z,97832.27
2018-01-22T16:48:51.984Z,97825.25
2018-01-22T16:51:19.478Z,97833.48
2018-01-22T16:53:46.932Z,97842.95
2018-01-22T16:56:14.659Z,97850.70
2018-01-22T16:58:42.131Z,97853.65
2018-01-22T17:01:09.682Z,97839.75
2018-01-22T17:03:37.655Z,97837.41
2018-01-22T17:06:05.644Z,97844.52
2018-01-22T17:08:33.104Z,97844.57
2018-01-22T17:11:00.955Z,97850.97
2018-01-22T17:13:28.406Z,97845.23
2018-01-22T17:15:55.862Z,97849.27
2018-01-22T17:18:24.011Z,97849.24
2018-01-22T17:20:51.672Z,97850.84
2018-01-22T17:23:19.227Z,97860.22
2018-01-22T17:25:47.128Z,97860.00
2018-01-22T17:28:15.241Z,97863.08
2018-01-22T17:30:42.705Z,97856.70
2018-01-22T17:33:10.569Z,97865.39
2018-01-22T17:35:38.492Z,97868.52
2018-01-22T17:38:07.830Z,97860.97
2018-01-22T17:40:37.074Z,97867.07
2018-01-22T17:43:04.586Z,97871.69
2018-01-22T17:45:32.054Z,97865.64
2018-01-22T17:47:59.769Z,97860.59
2018-01-22T17:50:27.214Z,97861.97
2018-01-22T17:52:54.685Z,97870.27
2018-01-22T17:55:22.604Z,97860.53
2018-01-22T17:57:50.051Z,97859.97
2018-01-22T18:00:17.517Z,97871.72
2018-01-22T18:02:45.297Z,97877.25
2018-01-22T18:05:12.754Z,97876.59
2018-01-22T18:07:40.201Z,97881.59
2018-01-22T18:10:08.308Z,97884.16
2018-01-22T18:12:35.761Z,97885.82
2018-01-22T18:15:03.225Z,97889.39
2018-01-22T18:17:31.279Z,97893.94
2018-01-22T18:19:58.728Z,97895.38
2018-01-22T18:22:26.743Z,97898.27
2018-01-22T18:24:54.761Z,97882.47
2018-01-22T18:27:22.360Z,97892.38
2018-01-22T18:29:49.817Z,97894.95
2018-01-22T18:32:17.588Z,97897.63
2018-01-22T18:34:45.368Z,97899.61
2018-01-22T18:37:12.836Z,97904.92
2018-01-22T18:39:41.492Z,97913.34
2018-01-22T18:42:08.952Z,97903.43
2018-01-22T18:44:36.397Z,97904.58
2018-01-22T18:47:04.495Z,97909.12
2018-01-22T18:49:31.995Z,97908.03
2018-01-22T18:52:00.121Z,97899.52
2018-01-22T18:54:28.848Z,97904.09
2018-01-22T18:56:56.533Z,97917.01
2018-01-22T18:59:24.244Z,97918.25
2018-01-22T19:01:52.372Z,97907.47
2018-01-22T19:04:19.829Z,97915.16
2018-01-22T19:06:47.301Z,97905.78
2018-01-22T19:09:14.993Z,97918.50
2018-01-22T19:11:44.046Z,97914.39
2018-01-22T19:14:11.694Z,97919.52
2018-01-22T19:16:39.631Z,97933.95
2018-01-22T19:19:07.241Z,97932.80
2018-01-22T19:21:34.860Z,97931.05
2018-01-22T19:24:03.453Z,97923.71
2018-01-22T19:26:31.018Z,97928.35
2018-01-22T19:28:58.753Z,97917.80
2018-01-22T19:31:27.088Z,97914.13
2018-01-22T19:33:54.805Z,97927.50
2018-01-22T19:36:22.264Z,97937.38
2018-01-22T19:38:50.091Z,97939.29
2018-01-22T19:41:17.887Z,97928.22
2018-01-22T19:43:47.091Z,97930.80
2018-01-22T19:46:14.916Z,97933.42
2018-01-22T19:48:42.384Z,97947.53
2018-01-22T19:51:09.857Z,97950.53
2018-01-22T19:53:37.889Z,97959.66
2018-01-22T19:56:05.360Z,97966.06
2018-01-22T19:58:32.828Z,97981.60
2018-01-22T20:01:00.613Z,97972.63
2018-01-22T20:03:28.117Z,97974.11
2018-01-22T20:05:55.623Z,97976.29
2018-01-22T20:08:23.577Z,97969.52
2018-01-22T20:10:51.071Z,97969.14
2018-01-22T20:13:18.528Z,97978.98
2018-01-22T20:15:46.269Z,97986.53
2018-01-22T20:18:14.348Z,97989.48
2018-01-22T20:20:42.161Z,97975.53
2018-01-22T20:23:10.165Z,97980.49
2018-01-22T20:25:37.626Z,97985.58
2018-01-22T20:28:05.086Z,97984.08
2018-01-22T20:30:32.873Z,97983.83
2018-01-22T20:33:00.345Z,97992.23
2018-01-22T20:35:28.628Z,97997.66
2018-01-22T20:37:57.405Z,98000.17
2018-01-22T20:40:25.496Z,98016.27
2018-01-22T20:42:53.568Z,98012.64
2018-01-22T20:45:21.663Z,98021.95
2018-01-22T20:47:49.725Z,98021.05
2018-01-22T20:50:17.997Z,98022.80
2018-01-22T20:52:46.448Z,98024.91
2018-01-22T20:55:14.513Z,98018.26
2018-01-22T20:57:42.333Z,98017.30
2018-01-22T21:00:10.302Z,98022.53
2018-01-22T21:02:37.754Z,98025.02
2018-01-22T21:05:05.214Z,98025.88
2018-01-22T21:07:33.124Z,98027.64
2018-01-22T21:10:00.584Z,98023.58
2018-01-22T21:12:28.056Z,98019.99
2018-01-22T21:14:55.995Z,98019.72
2018-01-22T21:17:23.464Z,98035.64
2018-01-22T21:19:50.929Z,98035.18
2018-01-22T21:22:18.748Z,98044.08
2018-01-22T21:24:46.200Z,98035.77
2018-01-22T21:27:13.664Z,98034.57
2018-01-22T21:29:42.331Z,98033.80
2018-01-22T21:32:10.330Z,98044.52
2018-01-22T21:34:38.371Z,98047.03
2018-01-22T21:37:06.272Z,98041.12
2018-01-22T21:39:34.339Z,98053.20
2018-01-22T21:42:02.407Z,98060.06
2018-01-22T21:44:31.110Z,98063.26
2018-01-22T21:46:58.567Z,98072.29
2018-01-22T21:49:26.030Z,98066.01
2018-01-22T21:51:54.057Z,98080.02
2018-01-22T21:54:21.512Z,98077.59
2018-01-22T21:56:48.967Z,98079.31
2018-01-22T21:59:16.800Z,98074.98
2018-01-22T22:01:44.290Z,98083.13
2018-01-22T22:04:11.756Z,98080.63
2018-01-22T22:06:39.472Z,98086.72
2018-01-22T22:09:06.938Z,98101.39
2018-01-22T22:11:34.466Z,98111.89
2018-01-22T22:14:02.468Z,98116.33
2018-01-22T22:16:29.929Z,98124.55
2018-01-22T22:18:57.376Z,98130.55
2018-01-22T22:21:25.152Z,98132.21
2018-01-22T22:23:52.618Z,98138.24
2018-01-22T22:26:20.085Z,98149.64
2018-01-22T22:28:48.140Z,98156.98
2018-01-22T22:31:15.593Z,98157.81
2018-01-22T22:33:43.065Z,98168.25
2018-01-22T22:36:10.836Z,98167.09
2018-01-22T22:38:38.311Z,98165.50
2018-01-22T22:41:05.780Z,98171.94
2018-01-22T22:43:33.826Z,98178.66
2018-01-22T22:46:01.808Z,98188.84
2018-01-22T22:48:29.263Z,98194.37
2018-01-22T22:50:57.139Z,98206.79
2018-01-22T22:53:24.594Z,98207.22
2018-01-22T22:55:52.053Z,98210.36
2018-01-22T22:58:19.807Z,98218.91
2018-01-22T23:00:47.260Z,98221.12
2018-01-22T23:03:14.733Z,98226.66
2018-01-22T23:05:42.505Z,98235.02
2018-01-22T23:08:09.964Z,98238.81
2018-01-22T23:10:37.425Z,98242.38
2018-01-22T23:13:05.509Z,98256.33
2018-01-22T23:15:32.969Z,98258.48
2018-01-22T23:18:00.418Z,98257.09
2018-01-22T23:20:28.189Z,98270.57
2018-01-22T23:22:55.644Z,98277.61
2018-01-22T23:25:23.107Z,98275.29
2018-01-22T23:27:51.173Z,98290.70
2018-01-22T23:30:18.621Z,98297.64
2018-01-22T23:32:46.073Z,98301.91
2018-01-22T23:35:13.963Z,98313.80
2018-01-22T23:37:41.413Z,98325.55
2018-01-22T23:40:08.868Z,98327.47
2018-01-22T23:42:36.861Z,98334.44
2018-01-22T23:45:04.317Z,98341.67
2018-01-22T23:47:35.531Z,98334.38
2018-01-22T23:50:03.228Z,98332.87
2018-01-22T23:52:30.691Z,98327.97
2018-01-22T23:54:58.145Z,98335.74
2018-01-22T23:57:25.912Z,98333.76
2018-01-22T23:59:53.356Z,98327.45
